Portada
METAR-TAF:

METAR-TAF

Aeropuertos :

Trípoli, Libia

Aeropuerto Internacional Mitiga

latitud: 32-54N, longitud: 13-17E, altitud: 11 m

Observación

El informe se hizo hace 38 minutos, a las 19:50 UTC
Viento 8 kt del este-sureste
Temperatura 20°C
Humedad 64%
Presión 1013 hPa
Visibilidad: 6000 m

METAR: HLLM 271950Z 11008KT 6000 NSC 20/13 Q1013

Hora: 22:28 (20:28 UTC)

Pronóstico

El informe se hizo hace 3 horas y 28 minutos, a las 17:00 UTC
Pronóstico válido del 27 a las 18 UTC al 28 a las 18 UTC
Viento 10 kt del este
Visibilidad: 7000 m
Evolucionando progresivamente
del 28 a las 00 UTC al 28 a las 02 UTC
Viento 5 kt del sur-sureste
Evolucionando progresivamente
del 28 a las 10 UTC al 28 a las 12 UTC
Viento 12 kt del este-noreste

TAF: HLLM 271700Z 2718/2818 09010KT 7000 NSC BECMG 2800/2802 15005KT BECMG 2810/2812 06012KT

Observaciones y pronósticos meteorológicos de más de 4000 aeropuertos (mensajes METAR y TAF).

Los puntos amarillos y rojos representan las estaciones disponibles.

Ponga el ratón en el punto deseado para ver el nombre de la estación.

Haga clic para ver las observaciones y los pronósticos meteorológicos.

Para cambiar el mapa : haga clic en los botones verdes con una cruz de color negro para hacer un zoom, en el botón verde con un guión para alejar o en las flechas verdes para mapas adyacentes.


METAR-TAF: